sensor_id;sensor_type;location;lat;lon;timestamp;temperature;humidity
51661;DHT22;37741;49.748;8.490;2024-01-11T00:00:14;-3.00;76.70
51661;DHT22;37741;49.748;8.490;2024-01-11T00:02:39;-3.00;76.70
51661;DHT22;37741;49.748;8.490;2024-01-11T00:05:05;-3.00;76.70
51661;DHT22;37741;49.748;8.490;2024-01-11T00:07:32;-3.00;76.70
51661;DHT22;37741;49.748;8.490;2024-01-11T00:09:57;-3.00;76.70
51661;DHT22;37741;49.748;8.490;2024-01-11T00:12:23;-3.00;76.80
51661;DHT22;37741;49.748;8.490;2024-01-11T00:14:49;-3.00;76.80
51661;DHT22;37741;49.748;8.490;2024-01-11T00:17:14;-3.00;76.80
51661;DHT22;37741;49.748;8.490;2024-01-11T00:19:41;-3.00;76.80
51661;DHT22;37741;49.748;8.490;2024-01-11T00:22:06;-3.10;76.80
51661;DHT22;37741;49.748;8.490;2024-01-11T00:24:32;-3.10;76.80
51661;DHT22;37741;49.748;8.490;2024-01-11T00:26:58;-3.10;76.80
51661;DHT22;37741;49.748;8.490;2024-01-11T00:29:23;-3.10;76.80
51661;DHT22;37741;49.748;8.490;2024-01-11T00:31:49;-3.10;76.90
51661;DHT22;37741;49.748;8.490;2024-01-11T00:34:14;-3.00;77.00
51661;DHT22;37741;49.748;8.490;2024-01-11T00:36:40;-3.10;76.90
51661;DHT22;37741;49.748;8.490;2024-01-11T00:39:06;-3.10;76.90
51661;DHT22;37741;49.748;8.490;2024-01-11T00:41:31;-3.10;76.90
51661;DHT22;37741;49.748;8.490;2024-01-11T00:43:57;-3.10;77.60
51661;DHT22;37741;49.748;8.490;2024-01-11T00:46:23;-3.10;77.00
51661;DHT22;37741;49.748;8.490;2024-01-11T00:48:48;-3.10;77.00
51661;DHT22;37741;49.748;8.490;2024-01-11T00:51:15;-3.10;77.00
51661;DHT22;37741;49.748;8.490;2024-01-11T00:53:41;-3.10;77.10
51661;DHT22;37741;49.748;8.490;2024-01-11T00:56:18;-3.20;77.00
51661;DHT22;37741;49.748;8.490;2024-01-11T00:58:44;-3.20;77.10
51661;DHT22;37741;49.748;8.490;2024-01-11T01:01:10;-3.10;77.10
51661;DHT22;37741;49.748;8.490;2024-01-11T01:03:36;-3.20;77.10
51661;DHT22;37741;49.748;8.490;2024-01-11T01:06:02;-3.10;77.20
51661;DHT22;37741;49.748;8.490;2024-01-11T01:08:28;-3.10;77.20
51661;DHT22;37741;49.748;8.490;2024-01-11T01:10:54;-3.20;77.10
51661;DHT22;37741;49.748;8.490;2024-01-11T01:13:20;-3.20;77.20
51661;DHT22;37741;49.748;8.490;2024-01-11T01:15:46;-3.20;77.20
51661;DHT22;37741;49.748;8.490;2024-01-11T01:18:12;-3.20;77.20
51661;DHT22;37741;49.748;8.490;2024-01-11T01:20:37;-3.10;77.30
51661;DHT22;37741;49.748;8.490;2024-01-11T01:23:03;-3.20;77.20
51661;DHT22;37741;49.748;8.490;2024-01-11T01:25:28;-3.20;77.30
51661;DHT22;37741;49.748;8.490;2024-01-11T01:27:55;-3.20;77.30
51661;DHT22;37741;49.748;8.490;2024-01-11T01:30:21;-3.20;77.20
51661;DHT22;37741;49.748;8.490;2024-01-11T01:32:46;-3.20;77.30
51661;DHT22;37741;49.748;8.490;2024-01-11T01:35:12;-3.20;77.30
51661;DHT22;37741;49.748;8.490;2024-01-11T01:37:38;-3.20;77.30
51661;DHT22;37741;49.748;8.490;2024-01-11T01:40:04;-3.20;77.30
51661;DHT22;37741;49.748;8.490;2024-01-11T01:42:30;-3.20;77.40
51661;DHT22;37741;49.748;8.490;2024-01-11T01:44:56;-3.20;77.40
51661;DHT22;37741;49.748;8.490;2024-01-11T01:47:21;-3.20;77.40
51661;DHT22;37741;49.748;8.490;2024-01-11T01:49:49;-3.20;77.40
51661;DHT22;37741;49.748;8.490;2024-01-11T01:52:15;-3.30;77.40
51661;DHT22;37741;49.748;8.490;2024-01-11T01:54:42;-3.30;77.40
51661;DHT22;37741;49.748;8.490;2024-01-11T01:57:08;-3.30;77.40
51661;DHT22;37741;49.748;8.490;2024-01-11T01:59:35;-3.30;77.50
51661;DHT22;37741;49.748;8.490;2024-01-11T02:02:01;-3.30;77.50
51661;DHT22;37741;49.748;8.490;2024-01-11T02:04:27;-3.30;77.50
51661;DHT22;37741;49.748;8.490;2024-01-11T02:06:53;-3.30;77.50
51661;DHT22;37741;49.748;8.490;2024-01-11T02:09:20;-3.30;77.50
51661;DHT22;37741;49.748;8.490;2024-01-11T02:11:46;-3.30;77.50
51661;DHT22;37741;49.748;8.490;2024-01-11T02:14:12;-3.30;77.50
51661;DHT22;37741;49.748;8.490;2024-01-11T02:16:38;-3.30;77.50
51661;DHT22;37741;49.748;8.490;2024-01-11T02:19:06;-3.30;77.50
51661;DHT22;37741;49.748;8.490;2024-01-11T02:21:33;-3.30;77.60
51661;DHT22;37741;49.748;8.490;2024-01-11T02:24:07;-3.30;77.60
51661;DHT22;37741;49.748;8.490;2024-01-11T02:26:33;-3.30;77.60
51661;DHT22;37741;49.748;8.490;2024-01-11T02:28:59;-3.30;77.60
51661;DHT22;37741;49.748;8.490;2024-01-11T02:31:25;-3.30;77.60
51661;DHT22;37741;49.748;8.490;2024-01-11T02:33:52;-3.40;77.60
51661;DHT22;37741;49.748;8.490;2024-01-11T02:36:19;-3.30;77.60
51661;DHT22;37741;49.748;8.490;2024-01-11T02:38:45;-3.30;77.70
51661;DHT22;37741;49.748;8.490;2024-01-11T02:41:11;-3.40;77.60
51661;DHT22;37741;49.748;8.490;2024-01-11T02:43:37;-3.40;78.20
51661;DHT22;37741;49.748;8.490;2024-01-11T02:46:04;-3.40;77.60
51661;DHT22;37741;49.748;8.490;2024-01-11T02:48:30;-3.40;78.30
51661;DHT22;37741;49.748;8.490;2024-01-11T02:50:57;-3.40;77.60
51661;DHT22;37741;49.748;8.490;2024-01-11T02:53:23;-3.40;77.70
51661;DHT22;37741;49.748;8.490;2024-01-11T02:55:51;-3.40;77.70
51661;DHT22;37741;49.748;8.490;2024-01-11T02:58:17;-3.40;78.30
51661;DHT22;37741;49.748;8.490;2024-01-11T03:00:43;-3.40;77.70
51661;DHT22;37741;49.748;8.490;2024-01-11T03:03:08;-3.40;77.70
51661;DHT22;37741;49.748;8.490;2024-01-11T03:05:34;-3.40;77.80
51661;DHT22;37741;49.748;8.490;2024-01-11T03:08:00;-3.40;77.80
51661;DHT22;37741;49.748;8.490;2024-01-11T03:10:25;-3.40;77.80
51661;DHT22;37741;49.748;8.490;2024-01-11T03:12:51;-3.40;77.80
51661;DHT22;37741;49.748;8.490;2024-01-11T03:15:17;-3.40;77.80
51661;DHT22;37741;49.748;8.490;2024-01-11T03:17:42;-3.40;77.80
51661;DHT22;37741;49.748;8.490;2024-01-11T03:20:08;-3.40;77.80
51661;DHT22;37741;49.748;8.490;2024-01-11T03:22:34;-3.40;77.80
51661;DHT22;37741;49.748;8.490;2024-01-11T03:25:00;-3.40;77.80
51661;DHT22;37741;49.748;8.490;2024-01-11T03:27:25;-3.50;77.90
51661;DHT22;37741;49.748;8.490;2024-01-11T03:29:51;-3.50;77.90
51661;DHT22;37741;49.748;8.490;2024-01-11T03:32:16;-3.50;77.90
51661;DHT22;37741;49.748;8.490;2024-01-11T03:34:42;-3.50;77.90
51661;DHT22;37741;49.748;8.490;2024-01-11T03:37:08;-3.50;78.00
51661;DHT22;37741;49.748;8.490;2024-01-11T03:39:34;-3.50;78.00
51661;DHT22;37741;49.748;8.490;2024-01-11T03:42:00;-3.50;78.00
51661;DHT22;37741;49.748;8.490;2024-01-11T03:44:25;-3.50;78.00
51661;DHT22;37741;49.748;8.490;2024-01-11T03:46:51;-3.50;78.00
51661;DHT22;37741;49.748;8.490;2024-01-11T03:49:17;-3.50;78.00
51661;DHT22;37741;49.748;8.490;2024-01-11T03:51:43;-3.50;78.00
51661;DHT22;37741;49.748;8.490;2024-01-11T03:54:08;-3.50;78.10
51661;DHT22;37741;49.748;8.490;2024-01-11T03:56:37;-3.50;78.10
51661;DHT22;37741;49.748;8.490;2024-01-11T03:59:04;-3.50;78.10
51661;DHT22;37741;49.748;8.490;2024-01-11T04:01:31;-3.50;78.10
51661;DHT22;37741;49.748;8.490;2024-01-11T04:03:57;-3.50;78.20
51661;DHT22;37741;49.748;8.490;2024-01-11T04:06:23;-3.60;78.20
51661;DHT22;37741;49.748;8.490;2024-01-11T04:08:50;-3.50;78.30
51661;DHT22;37741;49.748;8.490;2024-01-11T04:11:16;-3.60;78.20
51661;DHT22;37741;49.748;8.490;2024-01-11T04:13:42;-3.60;78.20
51661;DHT22;37741;49.748;8.490;2024-01-11T04:16:08;-3.60;78.20
51661;DHT22;37741;49.748;8.490;2024-01-11T04:18:34;-3.60;78.20
51661;DHT22;37741;49.748;8.490;2024-01-11T04:21:00;-3.60;78.20
51661;DHT22;37741;49.748;8.490;2024-01-11T04:23:25;-3.60;78.20
51661;DHT22;37741;49.748;8.490;2024-01-11T04:25:51;-3.60;78.20
51661;DHT22;37741;49.748;8.490;2024-01-11T04:28:17;-3.60;78.30
51661;DHT22;37741;49.748;8.490;2024-01-11T04:30:43;-3.60;78.30
51661;DHT22;37741;49.748;8.490;2024-01-11T04:33:09;-3.60;78.30
51661;DHT22;37741;49.748;8.490;2024-01-11T04:35:35;-3.60;78.30
51661;DHT22;37741;49.748;8.490;2024-01-11T04:38:01;-3.60;78.30
51661;DHT22;37741;49.748;8.490;2024-01-11T04:40:27;-3.60;78.30
51661;DHT22;37741;49.748;8.490;2024-01-11T04:42:52;-3.60;78.30
51661;DHT22;37741;49.748;8.490;2024-01-11T04:45:18;-3.70;78.30
51661;DHT22;37741;49.748;8.490;2024-01-11T04:47:43;-3.60;78.30
51661;DHT22;37741;49.748;8.490;2024-01-11T04:50:09;-3.60;78.40
51661;DHT22;37741;49.748;8.490;2024-01-11T04:52:35;-3.60;78.40
51661;DHT22;37741;49.748;8.490;2024-01-11T04:55:01;-3.70;78.30
51661;DHT22;37741;49.748;8.490;2024-01-11T04:57:27;-3.60;78.40
51661;DHT22;37741;49.748;8.490;2024-01-11T04:59:53;-3.70;78.30
51661;DHT22;37741;49.748;8.490;2024-01-11T05:02:20;-3.70;78.40
51661;DHT22;37741;49.748;8.490;2024-01-11T05:04:47;-3.70;78.40
51661;DHT22;37741;49.748;8.490;2024-01-11T05:07:13;-3.70;78.40
51661;DHT22;37741;49.748;8.490;2024-01-11T05:09:38;-3.70;78.40
51661;DHT22;37741;49.748;8.490;2024-01-11T05:12:05;-3.70;78.40
51661;DHT22;37741;49.748;8.490;2024-01-11T05:14:30;-3.70;78.40
51661;DHT22;37741;49.748;8.490;2024-01-11T05:16:56;-3.70;78.50
51661;DHT22;37741;49.748;8.490;2024-01-11T05:19:22;-3.70;78.50
51661;DHT22;37741;49.748;8.490;2024-01-11T05:21:47;-3.70;78.50
51661;DHT22;37741;49.748;8.490;2024-01-11T05:24:13;-3.70;78.50
51661;DHT22;37741;49.748;8.490;2024-01-11T05:26:38;-3.70;78.50
51661;DHT22;37741;49.748;8.490;2024-01-11T05:29:04;-3.80;78.50
51661;DHT22;37741;49.748;8.490;2024-01-11T05:31:30;-3.70;78.50
51661;DHT22;37741;49.748;8.490;2024-01-11T05:33:56;-3.70;78.60
51661;DHT22;37741;49.748;8.490;2024-01-11T05:36:21;-3.70;78.60
51661;DHT22;37741;49.748;8.490;2024-01-11T05:38:47;-3.80;78.50
51661;DHT22;37741;49.748;8.490;2024-01-11T05:41:14;-3.80;78.60
51661;DHT22;37741;49.748;8.490;2024-01-11T05:43:40;-3.80;78.60
51661;DHT22;37741;49.748;8.490;2024-01-11T05:46:06;-3.80;78.60
51661;DHT22;37741;49.748;8.490;2024-01-11T05:48:32;-3.80;78.60
51661;DHT22;37741;49.748;8.490;2024-01-11T05:50:58;-3.80;78.60
51661;DHT22;37741;49.748;8.490;2024-01-11T05:53:25;-3.80;78.60
51661;DHT22;37741;49.748;8.490;2024-01-11T05:55:53;-3.80;78.70
51661;DHT22;37741;49.748;8.490;2024-01-11T05:58:18;-3.80;78.60
51661;DHT22;37741;49.748;8.490;2024-01-11T06:00:45;-3.80;78.60
51661;DHT22;37741;49.748;8.490;2024-01-11T06:03:12;-3.80;78.70
51661;DHT22;37741;49.748;8.490;2024-01-11T06:05:37;-3.80;78.70
51661;DHT22;37741;49.748;8.490;2024-01-11T06:08:03;-3.90;78.70
51661;DHT22;37741;49.748;8.490;2024-01-11T06:10:29;-3.80;78.80
51661;DHT22;37741;49.748;8.490;2024-01-11T06:12:56;-3.90;78.70
51661;DHT22;37741;49.748;8.490;2024-01-11T06:15:22;-3.90;78.80
51661;DHT22;37741;49.748;8.490;2024-01-11T06:17:47;-3.90;78.70
51661;DHT22;37741;49.748;8.490;2024-01-11T06:20:13;-3.90;78.70
51661;DHT22;37741;49.748;8.490;2024-01-11T06:22:39;-3.90;78.70
51661;DHT22;37741;49.748;8.490;2024-01-11T06:25:05;-3.90;79.40
51661;DHT22;37741;49.748;8.490;2024-01-11T06:27:30;-3.90;78.80
51661;DHT22;37741;49.748;8.490;2024-01-11T06:29:56;-3.90;78.80
51661;DHT22;37741;49.748;8.490;2024-01-11T06:32:22;-3.90;79.40
51661;DHT22;37741;49.748;8.490;2024-01-11T06:34:47;-3.90;78.80
51661;DHT22;37741;49.748;8.490;2024-01-11T06:37:13;-3.90;78.80
51661;DHT22;37741;49.748;8.490;2024-01-11T06:39:39;-3.90;78.90
51661;DHT22;37741;49.748;8.490;2024-01-11T06:42:04;-3.90;78.80
51661;DHT22;37741;49.748;8.490;2024-01-11T06:44:30;-3.90;78.90
51661;DHT22;37741;49.748;8.490;2024-01-11T06:46:56;-4.00;78.80
51661;DHT22;37741;49.748;8.490;2024-01-11T06:49:22;-4.00;78.80
51661;DHT22;37741;49.748;8.490;2024-01-11T06:51:47;-4.00;79.40
51661;DHT22;37741;49.748;8.490;2024-01-11T06:54:13;-4.00;78.80
51661;DHT22;37741;49.748;8.490;2024-01-11T06:56:39;-4.00;78.80
51661;DHT22;37741;49.748;8.490;2024-01-11T06:59:05;-4.00;78.80
51661;DHT22;37741;49.748;8.490;2024-01-11T07:01:30;-4.00;78.80
51661;DHT22;37741;49.748;8.490;2024-01-11T07:03:56;-4.00;78.80
51661;DHT22;37741;49.748;8.490;2024-01-11T07:06:22;-4.00;78.80
51661;DHT22;37741;49.748;8.490;2024-01-11T07:08:48;-4.00;78.80
51661;DHT22;37741;49.748;8.490;2024-01-11T07:11:13;-4.00;78.80
51661;DHT22;37741;49.748;8.490;2024-01-11T07:13:39;-4.00;78.80
51661;DHT22;37741;49.748;8.490;2024-01-11T07:16:05;-4.00;78.80
51661;DHT22;37741;49.748;8.490;2024-01-11T07:18:31;-4.00;78.80
51661;DHT22;37741;49.748;8.490;2024-01-11T07:20:59;-4.00;78.90
51661;DHT22;37741;49.748;8.490;2024-01-11T07:23:25;-4.10;78.80
51661;DHT22;37741;49.748;8.490;2024-01-11T07:25:50;-4.10;78.80
51661;DHT22;37741;49.748;8.490;2024-01-11T07:28:16;-4.00;78.90
51661;DHT22;37741;49.748;8.490;2024-01-11T07:30:43;-4.10;78.80
51661;DHT22;37741;49.748;8.490;2024-01-11T07:33:08;-4.10;78.90
51661;DHT22;37741;49.748;8.490;2024-01-11T07:35:35;-4.10;78.90
51661;DHT22;37741;49.748;8.490;2024-01-11T07:38:00;-4.10;78.90
51661;DHT22;37741;49.748;8.490;2024-01-11T07:40:26;-4.10;78.90
51661;DHT22;37741;49.748;8.490;2024-01-11T07:42:52;-4.10;78.90
51661;DHT22;37741;49.748;8.490;2024-01-11T07:45:18;-4.10;78.90
51661;DHT22;37741;49.748;8.490;2024-01-11T07:47:44;-4.10;78.90
51661;DHT22;37741;49.748;8.490;2024-01-11T07:50:10;-4.10;78.90
51661;DHT22;37741;49.748;8.490;2024-01-11T07:52:36;-4.10;78.90
51661;DHT22;37741;49.748;8.490;2024-01-11T07:55:03;-4.20;78.80
51661;DHT22;37741;49.748;8.490;2024-01-11T07:57:36;-4.10;78.90
51661;DHT22;37741;49.748;8.490;2024-01-11T08:00:03;-4.10;79.00
51661;DHT22;37741;49.748;8.490;2024-01-11T08:02:29;-4.10;78.90
51661;DHT22;37741;49.748;8.490;2024-01-11T08:04:55;-4.20;78.80
51661;DHT22;37741;49.748;8.490;2024-01-11T08:07:20;-4.20;78.80
51661;DHT22;37741;49.748;8.490;2024-01-11T08:09:47;-4.20;78.90
51661;DHT22;37741;49.748;8.490;2024-01-11T08:12:12;-4.10;78.90
51661;DHT22;37741;49.748;8.490;2024-01-11T08:14:39;-4.20;78.90
51661;DHT22;37741;49.748;8.490;2024-01-11T08:17:04;-4.20;78.90
51661;DHT22;37741;49.748;8.490;2024-01-11T08:19:31;-4.20;78.90
51661;DHT22;37741;49.748;8.490;2024-01-11T08:21:58;-4.20;79.00
51661;DHT22;37741;49.748;8.490;2024-01-11T08:24:23;-4.20;79.00
51661;DHT22;37741;49.748;8.490;2024-01-11T08:26:50;-4.20;79.00
51661;DHT22;37741;49.748;8.490;2024-01-11T08:29:16;-4.20;79.00
51661;DHT22;37741;49.748;8.490;2024-01-11T08:31:44;-4.20;79.00
51661;DHT22;37741;49.748;8.490;2024-01-11T08:34:09;-4.20;79.10
51661;DHT22;37741;49.748;8.490;2024-01-11T08:36:36;-4.20;79.00
51661;DHT22;37741;49.748;8.490;2024-01-11T08:39:06;-4.20;79.10
51661;DHT22;37741;49.748;8.490;2024-01-11T08:41:33;-4.20;79.00
51661;DHT22;37741;49.748;8.490;2024-01-11T08:43:59;-4.20;79.10
51661;DHT22;37741;49.748;8.490;2024-01-11T08:46:25;-4.20;79.10
51661;DHT22;37741;49.748;8.490;2024-01-11T08:48:52;-4.20;79.00
51661;DHT22;37741;49.748;8.490;2024-01-11T08:51:18;-4.20;79.00
51661;DHT22;37741;49.748;8.490;2024-01-11T08:53:43;-4.20;79.10
51661;DHT22;37741;49.748;8.490;2024-01-11T08:56:09;-4.20;79.10
51661;DHT22;37741;49.748;8.490;2024-01-11T08:58:35;-4.20;79.10
51661;DHT22;37741;49.748;8.490;2024-01-11T09:01:01;-4.20;79.10
51661;DHT22;37741;49.748;8.490;2024-01-11T09:03:28;-4.20;79.10
51661;DHT22;37741;49.748;8.490;2024-01-11T09:05:54;-4.20;79.00
51661;DHT22;37741;49.748;8.490;2024-01-11T09:08:22;-4.20;79.00
51661;DHT22;37741;49.748;8.490;2024-01-11T09:10:50;-4.20;79.10
51661;DHT22;37741;49.748;8.490;2024-01-11T09:13:16;-4.20;79.00
51661;DHT22;37741;49.748;8.490;2024-01-11T09:15:42;-4.20;79.00
51661;DHT22;37741;49.748;8.490;2024-01-11T09:18:07;-4.20;79.10
51661;DHT22;37741;49.748;8.490;2024-01-11T09:20:34;-4.20;79.00
51661;DHT22;37741;49.748;8.490;2024-01-11T09:23:00;-4.20;79.10
51661;DHT22;37741;49.748;8.490;2024-01-11T09:25:29;-4.20;79.10
51661;DHT22;37741;49.748;8.490;2024-01-11T09:27:55;-4.20;79.10
51661;DHT22;37741;49.748;8.490;2024-01-11T09:30:21;-4.20;79.10
51661;DHT22;37741;49.748;8.490;2024-01-11T09:32:46;-4.20;79.10
51661;DHT22;37741;49.748;8.490;2024-01-11T09:35:13;-4.20;79.10
51661;DHT22;37741;49.748;8.490;2024-01-11T09:37:39;-4.20;79.10
51661;DHT22;37741;49.748;8.490;2024-01-11T09:40:05;-4.20;79.10
51661;DHT22;37741;49.748;8.490;2024-01-11T09:42:36;-4.20;79.20
51661;DHT22;37741;49.748;8.490;2024-01-11T09:45:09;-4.20;79.10
51661;DHT22;37741;49.748;8.490;2024-01-11T09:47:36;-4.20;79.20
51661;DHT22;37741;49.748;8.490;2024-01-11T09:50:05;-4.20;79.20
51661;DHT22;37741;49.748;8.490;2024-01-11T09:52:31;-4.10;79.30
51661;DHT22;37741;49.748;8.490;2024-01-11T09:55:00;-4.10;79.90
51661;DHT22;37741;49.748;8.490;2024-01-11T09:57:30;-4.10;79.20
51661;DHT22;37741;49.748;8.490;2024-01-11T09:59:57;-4.10;79.30
51661;DHT22;37741;49.748;8.490;2024-01-11T10:02:24;-4.10;79.30
51661;DHT22;37741;49.748;8.490;2024-01-11T10:04:55;-4.10;79.30
51661;DHT22;37741;49.748;8.490;2024-01-11T10:07:24;-4.10;79.30
51661;DHT22;37741;49.748;8.490;2024-01-11T10:09:52;-4.10;79.30
51661;DHT22;37741;49.748;8.490;2024-01-11T10:12:18;-4.10;79.20
51661;DHT22;37741;49.748;8.490;2024-01-11T10:14:46;-4.10;79.30
51661;DHT22;37741;49.748;8.490;2024-01-11T10:17:12;-4.10;79.30
51661;DHT22;37741;49.748;8.490;2024-01-11T10:19:38;-4.10;79.30
51661;DHT22;37741;49.748;8.490;2024-01-11T10:22:03;-4.10;79.30
51661;DHT22;37741;49.748;8.490;2024-01-11T10:24:30;-4.10;79.30
51661;DHT22;37741;49.748;8.490;2024-01-11T10:26:57;-4.10;79.30
51661;DHT22;37741;49.748;8.490;2024-01-11T10:29:27;-4.00;79.30
51661;DHT22;37741;49.748;8.490;2024-01-11T10:31:55;-4.00;79.30
51661;DHT22;37741;49.748;8.490;2024-01-11T10:34:23;-4.00;79.30
51661;DHT22;37741;49.748;8.490;2024-01-11T10:36:52;-4.00;79.40
51661;DHT22;37741;49.748;8.490;2024-01-11T10:39:20;-4.00;79.30
51661;DHT22;37741;49.748;8.490;2024-01-11T10:41:51;-4.00;79.30
51661;DHT22;37741;49.748;8.490;2024-01-11T10:44:21;-4.00;79.30
51661;DHT22;37741;49.748;8.490;2024-01-11T10:46:49;-4.00;79.30
51661;DHT22;37741;49.748;8.490;2024-01-11T10:49:19;-3.90;79.30
51661;DHT22;37741;49.748;8.490;2024-01-11T10:51:53;-4.00;79.20
51661;DHT22;37741;49.748;8.490;2024-01-11T10:54:20;-3.90;79.60
51661;DHT22;37741;49.748;8.490;2024-01-11T10:56:47;-3.90;79.20
51661;DHT22;37741;49.748;8.490;2024-01-11T10:59:18;-3.90;79.30
51661;DHT22;37741;49.748;8.490;2024-01-11T11:01:46;-3.90;79.20
51661;DHT22;37741;49.748;8.490;2024-01-11T11:04:13;-3.90;79.20
51661;DHT22;37741;49.748;8.490;2024-01-11T11:06:41;-3.80;79.20
51661;DHT22;37741;49.748;8.490;2024-01-11T11:09:09;-3.90;79.20
51661;DHT22;37741;49.748;8.490;2024-01-11T11:11:36;-3.90;79.20
51661;DHT22;37741;49.748;8.490;2024-01-11T11:14:03;-3.80;79.20
51661;DHT22;37741;49.748;8.490;2024-01-11T11:16:30;-3.80;79.10
51661;DHT22;37741;49.748;8.490;2024-01-11T11:18:56;-3.80;79.10
51661;DHT22;37741;49.748;8.490;2024-01-11T11:21:22;-3.80;79.10
51661;DHT22;37741;49.748;8.490;2024-01-11T11:23:50;-3.80;79.10
51661;DHT22;37741;49.748;8.490;2024-01-11T11:26:16;-3.80;79.10
51661;DHT22;37741;49.748;8.490;2024-01-11T11:28:47;-3.70;79.10
51661;DHT22;37741;49.748;8.490;2024-01-11T11:31:41;-3.80;79.10
51661;DHT22;37741;49.748;8.490;2024-01-11T11:34:07;-3.70;79.00
51661;DHT22;37741;49.748;8.490;2024-01-11T11:36:33;-3.70;79.00
51661;DHT22;37741;49.748;8.490;2024-01-11T11:39:01;-3.70;79.00
51661;DHT22;37741;49.748;8.490;2024-01-11T11:41:27;-3.70;79.00
51661;DHT22;37741;49.748;8.490;2024-01-11T11:44:03;-3.70;79.10
51661;DHT22;37741;49.748;8.490;2024-01-11T11:46:29;-3.70;79.00
51661;DHT22;37741;49.748;8.490;2024-01-11T11:48:56;-3.60;79.00
51661;DHT22;37741;49.748;8.490;2024-01-11T11:51:23;-3.60;79.00
51661;DHT22;37741;49.748;8.490;2024-01-11T11:53:51;-3.60;79.10
51661;DHT22;37741;49.748;8.490;2024-01-11T11:56:19;-3.60;79.00
51661;DHT22;37741;49.748;8.490;2024-01-11T11:58:46;-3.60;78.90
51661;DHT22;37741;49.748;8.490;2024-01-11T12:01:14;-3.60;78.90
51661;DHT22;37741;49.748;8.490;2024-01-11T12:03:41;-3.50;79.00
51661;DHT22;37741;49.748;8.490;2024-01-11T12:06:10;-3.50;79.00
51661;DHT22;37741;49.748;8.490;2024-01-11T12:08:36;-3.50;79.00
51661;DHT22;37741;49.748;8.490;2024-01-11T12:11:03;-3.50;78.90
51661;DHT22;37741;49.748;8.490;2024-01-11T12:13:29;-3.40;79.00
51661;DHT22;37741;49.748;8.490;2024-01-11T12:15:56;-3.40;78.90
51661;DHT22;37741;49.748;8.490;2024-01-11T12:18:22;-3.40;78.90
51661;DHT22;37741;49.748;8.490;2024-01-11T12:20:48;-3.40;78.90
51661;DHT22;37741;49.748;8.490;2024-01-11T12:23:13;-3.40;78.80
51661;DHT22;37741;49.748;8.490;2024-01-11T12:25:40;-3.30;78.80
51661;DHT22;37741;49.748;8.490;2024-01-11T12:28:06;-3.30;78.80
51661;DHT22;37741;49.748;8.490;2024-01-11T12:30:32;-3.30;78.80
51661;DHT22;37741;49.748;8.490;2024-01-11T12:32:59;-3.30;79.10
51661;DHT22;37741;49.748;8.490;2024-01-11T12:35:27;-3.20;79.10
51661;DHT22;37741;49.748;8.490;2024-01-11T12:37:59;-3.20;78.80
51661;DHT22;37741;49.748;8.490;2024-01-11T12:40:26;-3.20;78.80
51661;DHT22;37741;49.748;8.490;2024-01-11T12:42:53;-3.20;78.80
51661;DHT22;37741;49.748;8.490;2024-01-11T12:45:20;-3.20;78.80
51661;DHT22;37741;49.748;8.490;2024-01-11T12:47:46;-3.20;78.60
51661;DHT22;37741;49.748;8.490;2024-01-11T12:50:12;-3.10;78.80
51661;DHT22;37741;49.748;8.490;2024-01-11T12:52:38;-3.10;78.90
51661;DHT22;37741;49.748;8.490;2024-01-11T12:55:06;-3.10;79.30
51661;DHT22;37741;49.748;8.490;2024-01-11T12:57:33;-3.10;78.70
51661;DHT22;37741;49.748;8.490;2024-01-11T13:00:15;-3.10;78.70
51661;DHT22;37741;49.748;8.490;2024-01-11T13:02:41;-3.10;78.60
51661;DHT22;37741;49.748;8.490;2024-01-11T13:05:09;-3.00;78.70
51661;DHT22;37741;49.748;8.490;2024-01-11T13:07:37;-3.00;78.70
51661;DHT22;37741;49.748;8.490;2024-01-11T13:10:03;-3.00;78.70
51661;DHT22;37741;49.748;8.490;2024-01-11T13:12:29;-3.00;78.70
51661;DHT22;37741;49.748;8.490;2024-01-11T13:14:55;-3.00;78.80
51661;DHT22;37741;49.748;8.490;2024-01-11T13:17:21;-2.90;79.10
51661;DHT22;37741;49.748;8.490;2024-01-11T13:19:47;-2.90;78.70
51661;DHT22;37741;49.748;8.490;2024-01-11T13:22:12;-2.90;78.60
51661;DHT22;37741;49.748;8.490;2024-01-11T13:24:38;-2.90;78.60
51661;DHT22;37741;49.748;8.490;2024-01-11T13:27:04;-2.90;78.60
51661;DHT22;37741;49.748;8.490;2024-01-11T13:29:30;-2.80;78.60
51661;DHT22;37741;49.748;8.490;2024-01-11T13:31:56;-2.80;78.60
51661;DHT22;37741;49.748;8.490;2024-01-11T13:34:21;-2.80;78.60
51661;DHT22;37741;49.748;8.490;2024-01-11T13:36:47;-2.80;78.60
51661;DHT22;37741;49.748;8.490;2024-01-11T13:39:12;-2.80;78.60
51661;DHT22;37741;49.748;8.490;2024-01-11T13:41:38;-2.70;78.60
51661;DHT22;37741;49.748;8.490;2024-01-11T13:44:06;-2.70;78.50
51661;DHT22;37741;49.748;8.490;2024-01-11T13:46:32;-2.70;78.50
51661;DHT22;37741;49.748;8.490;2024-01-11T13:48:58;-2.70;78.80
51661;DHT22;37741;49.748;8.490;2024-01-11T13:51:24;-2.70;78.40
51661;DHT22;37741;49.748;8.490;2024-01-11T13:53:49;-2.70;78.50
51661;DHT22;37741;49.748;8.490;2024-01-11T13:56:15;-2.70;78.50
51661;DHT22;37741;49.748;8.490;2024-01-11T13:58:41;-2.70;78.50
51661;DHT22;37741;49.748;8.490;2024-01-11T14:01:07;-2.60;78.50
51661;DHT22;37741;49.748;8.490;2024-01-11T14:03:33;-2.60;78.50
51661;DHT22;37741;49.748;8.490;2024-01-11T14:05:59;-2.60;78.50
51661;DHT22;37741;49.748;8.490;2024-01-11T14:08:25;-2.60;78.50
51661;DHT22;37741;49.748;8.490;2024-01-11T14:10:51;-2.60;78.50
51661;DHT22;37741;49.748;8.490;2024-01-11T14:13:17;-2.60;78.50
51661;DHT22;37741;49.748;8.490;2024-01-11T14:15:43;-2.50;78.50
51661;DHT22;37741;49.748;8.490;2024-01-11T14:18:08;-2.50;79.10
51661;DHT22;37741;49.748;8.490;2024-01-11T14:20:35;-2.50;78.40
51661;DHT22;37741;49.748;8.490;2024-01-11T14:23:00;-2.50;78.50
51661;DHT22;37741;49.748;8.490;2024-01-11T14:25:26;-2.50;78.30
51661;DHT22;37741;49.748;8.490;2024-01-11T14:27:52;-2.50;78.40
51661;DHT22;37741;49.748;8.490;2024-01-11T14:30:22;-2.40;79.00
51661;DHT22;37741;49.748;8.490;2024-01-11T14:32:48;-2.50;78.30
51661;DHT22;37741;49.748;8.490;2024-01-11T14:35:14;-2.40;78.60
51661;DHT22;37741;49.748;8.490;2024-01-11T14:37:40;-2.40;78.40
51661;DHT22;37741;49.748;8.490;2024-01-11T14:40:06;-2.40;78.40
51661;DHT22;37741;49.748;8.490;2024-01-11T14:42:32;-2.40;78.30
51661;DHT22;37741;49.748;8.490;2024-01-11T14:44:58;-2.40;78.30
51661;DHT22;37741;49.748;8.490;2024-01-11T14:47:24;-2.40;78.30
51661;DHT22;37741;49.748;8.490;2024-01-11T14:49:51;-2.40;78.20
51661;DHT22;37741;49.748;8.490;2024-01-11T14:52:17;-2.30;78.30
51661;DHT22;37741;49.748;8.490;2024-01-11T14:54:44;-2.30;78.20
51661;DHT22;37741;49.748;8.490;2024-01-11T14:57:10;-2.30;78.10
51661;DHT22;37741;49.748;8.490;2024-01-11T14:59:36;-2.30;78.10
51661;DHT22;37741;49.748;8.490;2024-01-11T15:02:02;-2.30;78.10
51661;DHT22;37741;49.748;8.490;2024-01-11T15:04:28;-2.30;78.00
51661;DHT22;37741;49.748;8.490;2024-01-11T15:06:53;-2.30;77.90
51661;DHT22;37741;49.748;8.490;2024-01-11T15:09:19;-2.30;77.90
51661;DHT22;37741;49.748;8.490;2024-01-11T15:11:44;-2.30;77.80
51661;DHT22;37741;49.748;8.490;2024-01-11T15:14:10;-2.30;77.90
51661;DHT22;37741;49.748;8.490;2024-01-11T15:16:36;-2.30;77.70
51661;DHT22;37741;49.748;8.490;2024-01-11T15:19:02;-2.20;77.50
51661;DHT22;37741;49.748;8.490;2024-01-11T15:21:28;-2.20;77.40
51661;DHT22;37741;49.748;8.490;2024-01-11T15:23:54;-2.20;77.20